Time;durP1;ratioP1;P1;durP2;ratioP2;P2;SDS_P1;SDS_P2;PMS_P1;PMS_P2;Temp;Humidity;BMP_temperature;BMP_pressure;BME280_temperature;BME280_humidity;BME280_pressure;Samples;Min_cycle;Max_cycle;Signal;HPM_P1;HPM_P2
2023/06/18 00:02:03;;;;;;;12.45;9.07;;;15.20;99.90;;;;;;4997894;28;20183;-83
2023/06/18 00:04:29;;;;;;;14.10;9.07;;;15.20;99.90;;;;;;4997397;28;20470;-84
2023/06/18 00:06:55;;;;;;;12.73;9.40;;;15.10;99.90;;;;;;4996448;28;20034;-84
2023/06/18 00:09:21;;;;;;;13.60;9.25;;;15.10;99.90;;;;;;4996132;28;20096;-85
2023/06/18 00:11:48;;;;;;;13.50;9.27;;;15.10;99.90;;;;;;4995321;28;20075;-84
2023/06/18 00:14:13;;;;;;;15.15;9.25;;;15.10;99.90;;;;;;4996648;28;20034;-84
2023/06/18 00:16:39;;;;;;;11.35;8.68;;;15.00;99.90;;;;;;4995964;28;20030;-84
2023/06/18 00:19:04;;;;;;;11.70;7.85;;;15.00;99.90;;;;;;4996131;28;20042;-83
2023/06/18 00:21:30;;;;;;;12.00;8.30;;;15.00;99.90;;;;;;4996818;28;20030;-83
2023/06/18 00:23:56;;;;;;;11.82;7.82;;;14.90;99.90;;;;;;4996876;28;20030;-83
2023/06/18 00:26:23;;;;;;;10.65;7.93;;;14.90;99.90;;;;;;4996374;28;20766;-84
2023/06/18 00:28:48;;;;;;;12.02;8.45;;;14.80;99.90;;;;;;4996238;28;20038;-83
2023/06/18 00:31:14;;;;;;;15.15;8.60;;;14.80;99.90;;;;;;4996599;28;20022;-84
2023/06/18 00:33:40;;;;;;;11.43;7.80;;;14.80;99.90;;;;;;4995387;28;20033;-83
2023/06/18 00:36:06;;;;;;;9.55;7.47;;;14.80;99.90;;;;;;4995932;28;20030;-83
2023/06/18 00:38:33;;;;;;;10.90;7.97;;;14.80;99.90;;;;;;4998455;28;21471;-84
2023/06/18 00:40:59;;;;;;;11.55;7.93;;;14.80;99.90;;;;;;4998171;28;20034;-83
2023/06/18 00:43:28;;;;;;;11.55;8.10;;;14.70;99.90;;;;;;4996807;28;20045;-83
2023/06/18 00:45:55;;;;;;;11.07;8.18;;;14.70;99.90;;;;;;4995730;28;20076;-84
2023/06/18 00:48:21;;;;;;;11.30;7.35;;;14.70;99.90;;;;;;4997353;28;20034;-84
2023/06/18 00:50:47;;;;;;;13.45;8.35;;;14.60;99.90;;;;;;4997389;28;20783;-84
2023/06/18 00:53:13;;;;;;;11.63;8.23;;;14.60;99.90;;;;;;4997761;28;20108;-83
2023/06/18 00:55:41;;;;;;;9.95;7.97;;;14.50;99.90;;;;;;4996894;28;20061;-83
2023/06/18 00:58:06;;;;;;;13.68;8.20;;;14.50;99.90;;;;;;4997016;28;20130;-83
2023/06/18 01:00:34;;;;;;;16.15;7.97;;;14.50;99.90;;;;;;4996325;28;20121;-84
2023/06/18 01:03:02;;;;;;;10.93;8.00;;;14.40;99.90;;;;;;4997037;28;20775;-83
2023/06/18 01:05:31;;;;;;;10.75;8.23;;;14.40;99.90;;;;;;4996372;28;20031;-85
2023/06/18 01:08:02;;;;;;;10.43;7.50;;;14.40;99.90;;;;;;4997766;28;20081;-83
2023/06/18 01:10:29;;;;;;;11.48;8.30;;;14.30;99.90;;;;;;4997193;28;20678;-83
2023/06/18 01:12:58;;;;;;;11.55;7.90;;;14.30;99.90;;;;;;4996856;28;20022;-84
2023/06/18 01:15:26;;;;;;;10.25;8.32;;;14.20;99.90;;;;;;4995635;28;20073;-84
2023/06/18 01:17:56;;;;;;;13.25;8.13;;;14.20;99.90;;;;;;5026631;23;20053;-78
2023/06/18 01:20:25;;;;;;;11.70;8.07;;;14.20;99.90;;;;;;4983538;28;20713;-77
2023/06/18 01:23:02;;;;;;;12.07;8.40;;;14.20;99.90;;;;;;4983836;28;20169;-76
2023/06/18 01:25:32;;;;;;;9.63;7.65;;;14.20;99.90;;;;;;4984177;28;20034;-77
2023/06/18 01:28:03;;;;;;;13.55;9.07;;;14.20;99.90;;;;;;4971622;28;20026;-77
2023/06/18 01:30:28;;;;;;;10.40;7.95;;;14.10;99.90;;;;;;4971938;28;20205;-77
2023/06/18 01:32:55;;;;;;;13.70;8.00;;;14.10;99.90;;;;;;4971982;28;20157;-75
2023/06/18 01:35:22;;;;;;;11.57;8.50;;;14.10;99.90;;;;;;4970970;28;20041;-74
2023/06/18 01:38:00;;;;;;;10.95;8.00;;;14.00;99.90;;;;;;4971596;28;20951;-75
2023/06/18 01:40:34;;;;;;;11.25;7.82;;;14.00;99.90;;;;;;4971652;28;20044;-75
2023/06/18 01:43:03;;;;;;;10.95;8.05;;;14.00;99.90;;;;;;4970585;28;20023;-75
2023/06/18 01:45:58;;;;;;;10.10;7.63;;;14.00;99.90;;;;;;4971071;28;20041;-75
2023/06/18 01:48:25;;;;;;;;;;;13.90;99.90;;;;;;4971953;28;20122;-74
2023/06/18 01:50:52;;;;;;;10.98;8.15;;;13.90;99.90;;;;;;4971799;28;19966;-75
2023/06/18 01:53:21;;;;;;;10.23;8.05;;;13.80;99.90;;;;;;4969680;28;20468;-75
2023/06/18 01:55:49;;;;;;;12.60;7.75;;;13.70;99.90;;;;;;4971213;28;20034;-74
2023/06/18 01:58:15;;;;;;;10.32;8.35;;;13.70;99.90;;;;;;4970793;28;20027;-74
2023/06/18 02:00:41;;;;;;;13.05;8.05;;;13.60;99.90;;;;;;4971361;28;20042;-75
2023/06/18 02:03:07;;;;;;;10.73;7.70;;;13.60;99.90;;;;;;4970745;28;20040;-75
2023/06/18 02:05:33;;;;;;;9.63;8.00;;;13.50;99.90;;;;;;4969582;28;20050;-75
2023/06/18 02:07:59;;;;;;;10.48;8.07;;;13.50;99.90;;;;;;4971227;28;20027;-75
2023/06/18 02:10:25;;;;;;;12.60;8.30;;;13.50;99.90;;;;;;4970673;28;20030;-75
2023/06/18 02:12:50;;;;;;;13.95;8.52;;;13.40;99.90;;;;;;4969756;28;20057;-75
2023/06/18 02:15:16;;;;;;;11.27;7.78;;;13.40;99.90;;;;;;4970615;28;20077;-74
2023/06/18 02:17:43;;;;;;;11.60;7.90;;;13.40;99.90;;;;;;4971515;28;20030;-74
2023/06/18 02:20:10;;;;;;;11.35;8.27;;;13.40;99.90;;;;;;4972579;28;20042;-75
2023/06/18 02:22:36;;;;;;;11.90;8.40;;;13.30;99.90;;;;;;4973201;28;20031;-75
2023/06/18 02:25:02;;;;;;;10.32;8.20;;;13.30;99.90;;;;;;4971522;28;20038;-75
2023/06/18 02:27:28;;;;;;;11.75;8.93;;;13.30;99.90;;;;;;4970252;28;20038;-75
2023/06/18 02:29:53;;;;;;;12.35;7.97;;;13.30;99.90;;;;;;4970470;28;20502;-75
2023/06/18 02:32:19;;;;;;;11.77;8.38;;;13.20;99.90;;;;;;4970960;28;20035;-75
2023/06/18 02:34:45;;;;;;;18.48;8.07;;;13.20;99.90;;;;;;4969958;28;20038;-75
2023/06/18 02:37:10;;;;;;;12.60;8.38;;;13.20;99.90;;;;;;4969162;28;20031;-75
2023/06/18 02:39:36;;;;;;;13.15;8.30;;;13.10;99.90;;;;;;4970148;28;20042;-74
2023/06/18 02:42:03;;;;;;;14.77;8.93;;;13.10;99.90;;;;;;4970562;28;20046;-75
2023/06/18 02:44:28;;;;;;;12.00;8.43;;;13.10;99.90;;;;;;4970008;28;20023;-75
2023/06/18 02:46:55;;;;;;;10.93;8.52;;;13.10;99.90;;;;;;4969133;28;21489;-75
2023/06/18 02:49:21;;;;;;;11.27;9.13;;;13.10;99.90;;;;;;4970218;28;20046;-75
2023/06/18 02:51:47;;;;;;;13.43;8.32;;;13.00;99.90;;;;;;4970604;28;20038;-75
2023/06/18 02:54:13;;;;;;;16.58;10.23;;;13.00;99.90;;;;;;4970729;28;20081;-75
2023/06/18 02:56:38;;;;;;;11.73;8.95;;;13.00;99.90;;;;;;4968964;28;20515;-74
2023/06/18 02:59:04;;;;;;;10.15;8.23;;;13.00;99.90;;;;;;4970013;28;21489;-74
2023/06/18 03:01:31;;;;;;;10.77;8.32;;;13.00;99.90;;;;;;4970247;28;20493;-75
2023/06/18 03:03:57;;;;;;;11.48;8.63;;;12.90;99.90;;;;;;4969871;28;20031;-74
2023/06/18 03:06:23;;;;;;;12.02;8.50;;;12.80;99.90;;;;;;4969411;28;20030;-75
2023/06/18 03:08:49;;;;;;;10.40;8.43;;;12.80;99.90;;;;;;4969989;28;20275;-75
2023/06/18 03:11:14;;;;;;;12.25;8.80;;;12.80;99.90;;;;;;4969518;28;20121;-75
2023/06/18 03:13:40;;;;;;;17.30;8.68;;;12.80;99.90;;;;;;4969600;28;20454;-74
2023/06/18 03:16:06;;;;;;;11.68;8.40;;;12.80;99.90;;;;;;4969539;28;20206;-74
2023/06/18 03:18:31;;;;;;;11.50;8.45;;;12.70;99.90;;;;;;4971088;28;20046;-75
2023/06/18 03:20:57;;;;;;;12.25;8.52;;;12.80;99.90;;;;;;4969775;28;20030;-75
2023/06/18 03:23:23;;;;;;;12.57;8.68;;;12.80;99.90;;;;;;4970537;28;20058;-74
2023/06/18 03:25:48;;;;;;;15.38;8.65;;;12.70;99.90;;;;;;4971887;28;20586;-75
2023/06/18 03:28:14;;;;;;;12.10;8.63;;;12.70;99.90;;;;;;4974448;28;20041;-74
2023/06/18 03:30:41;;;;;;;10.90;8.95;;;12.70;99.90;;;;;;4974737;28;20590;-74
2023/06/18 03:33:08;;;;;;;12.07;8.35;;;12.70;99.90;;;;;;4972272;28;20034;-74
2023/06/18 03:35:36;;;;;;;12.85;8.63;;;12.70;99.90;;;;;;4972465;28;20076;-75
2023/06/18 03:38:02;;;;;;;12.05;8.95;;;12.70;99.90;;;;;;4973939;28;20574;-74
2023/06/18 03:40:28;;;;;;;12.80;8.82;;;12.70;99.90;;;;;;4973331;28;20054;-75
2023/06/18 03:42:53;;;;;;;13.82;8.85;;;12.70;99.90;;;;;;4973759;28;20038;-75
2023/06/18 03:45:21;;;;;;;17.17;9.00;;;12.70;99.90;;;;;;4971760;28;20038;-75
2023/06/18 03:47:47;;;;;;;18.23;8.32;;;12.70;99.90;;;;;;4972600;28;20038;-75
2023/06/18 03:50:13;;;;;;;12.77;8.75;;;12.80;99.90;;;;;;4973466;28;20035;-74
2023/06/18 03:52:38;;;;;;;15.05;8.48;;;12.70;99.90;;;;;;4973918;28;20046;-74
2023/06/18 03:55:05;;;;;;;11.60;7.75;;;12.80;99.90;;;;;;4972290;28;20550;-74
2023/06/18 03:57:30;;;;;;;13.82;8.38;;;12.80;99.90;;;;;;4973156;28;20462;-74
2023/06/18 03:59:56;;;;;;;12.23;8.07;;;12.80;99.90;;;;;;4973196;28;20191;-75
2023/06/18 04:02:21;;;;;;;13.00;8.65;;;12.80;99.90;;;;;;4972388;28;20038;-75
2023/06/18 04:04:47;;;;;;;10.48;7.85;;;12.90;99.90;;;;;;4973330;28;20031;-75
2023/06/18 04:07:13;;;;;;;11.27;8.60;;;12.90;99.90;;;;;;4972202;28;20037;-74
2023/06/18 04:09:38;;;;;;;12.93;8.38;;;13.00;99.90;;;;;;4972929;28;20045;-75
2023/06/18 04:12:04;;;;;;;10.65;8.13;;;13.00;99.90;;;;;;4972033;28;20107;-74
2023/06/18 04:14:30;;;;;;;10.65;8.05;;;13.00;99.90;;;;;;4971480;28;20542;-75
2023/06/18 04:16:56;;;;;;;13.75;9.40;;;13.10;99.90;;;;;;4972895;28;20494;-74
2023/06/18 04:19:21;;;;;;;10.65;8.35;;;13.10;99.90;;;;;;4973159;28;20050;-75
2023/06/18 04:21:48;;;;;;;13.52;8.93;;;13.20;99.90;;;;;;4973882;28;20030;-74
2023/06/18 04:24:14;;;;;;;13.95;9.32;;;13.20;99.90;;;;;;4971529;28;20465;-74
2023/06/18 04:26:39;;;;;;;11.20;8.63;;;13.20;99.90;;;;;;4972057;28;20118;-75
2023/06/18 04:29:05;;;;;;;12.02;8.48;;;13.20;99.90;;;;;;4972155;28;20076;-75
2023/06/18 04:31:30;;;;;;;13.50;8.85;;;13.20;99.90;;;;;;4972921;28;20080;-74
2023/06/18 04:33:56;;;;;;;10.77;8.88;;;13.20;99.90;;;;;;4971996;28;20852;-75
2023/06/18 04:36:21;;;;;;;10.70;8.43;;;13.30;99.90;;;;;;4970941;28;20511;-75
2023/06/18 04:38:47;;;;;;;12.13;8.45;;;13.40;99.90;;;;;;4972088;28;20077;-75
2023/06/18 04:41:13;;;;;;;11.93;8.10;;;13.50;99.90;;;;;;4972750;28;20157;-74
2023/06/18 04:43:38;;;;;;;12.43;8.90;;;13.60;99.90;;;;;;4972617;28;20129;-75
2023/06/18 04:46:04;;;;;;;12.35;8.65;;;13.60;99.90;;;;;;4971939;28;20038;-75
2023/06/18 04:48:31;;;;;;;12.77;8.80;;;13.70;99.90;;;;;;4972976;28;20062;-75
2023/06/18 04:50:59;;;;;;;12.25;8.65;;;13.80;99.90;;;;;;4972655;28;20039;-77
2023/06/18 04:53:25;;;;;;;14.77;8.98;;;13.90;99.90;;;;;;4971470;28;20109;-77
2023/06/18 04:55:50;;;;;;;11.52;8.55;;;14.00;99.90;;;;;;4969605;28;20034;-77
2023/06/18 04:58:16;;;;;;;13.13;8.07;;;14.10;99.90;;;;;;4972513;28;20031;-76
2023/06/18 05:00:42;;;;;;;12.52;8.18;;;14.20;99.90;;;;;;4970741;28;20126;-76
2023/06/18 05:03:07;;;;;;;14.93;7.55;;;14.30;99.90;;;;;;4971629;28;21009;-76
2023/06/18 05:05:33;;;;;;;10.77;7.50;;;14.40;99.90;;;;;;4970098;28;20121;-75
2023/06/18 05:07:59;;;;;;;12.80;8.63;;;14.50;99.90;;;;;;4972463;28;20106;-76
2023/06/18 05:10:24;;;;;;;11.75;8.02;;;14.60;99.90;;;;;;4972223;28;20057;-76
2023/06/18 05:12:50;;;;;;;10.90;8.20;;;14.70;99.90;;;;;;4972128;28;20042;-76
2023/06/18 05:15:15;;;;;;;9.60;7.65;;;14.80;99.90;;;;;;4971232;28;20497;-75
2023/06/18 05:17:41;;;;;;;11.77;8.35;;;14.90;99.90;;;;;;4970090;28;20578;-75
2023/06/18 05:20:08;;;;;;;9.63;7.70;;;15.00;99.90;;;;;;4971111;28;20043;-75
2023/06/18 05:22:34;;;;;;;14.23;7.93;;;15.10;99.90;;;;;;4970778;28;20037;-75
2023/06/18 05:24:59;;;;;;;10.82;7.72;;;15.20;99.90;;;;;;4971556;28;20030;-75
2023/06/18 05:27:28;;;;;;;12.65;7.63;;;15.30;99.90;;;;;;4970273;28;20176;-67
2023/06/18 05:29:54;;;;;;;11.75;7.68;;;15.40;99.90;;;;;;4970197;28;20455;-67
2023/06/18 05:32:20;;;;;;;12.02;7.53;;;15.60;99.90;;;;;;4970946;28;20117;-67
2023/06/18 05:34:45;;;;;;;12.93;8.55;;;15.70;99.90;;;;;;4969033;28;20041;-67
2023/06/18 05:37:11;;;;;;;10.32;8.20;;;15.80;99.90;;;;;;4971238;28;20420;-69
2023/06/18 05:39:37;;;;;;;13.13;8.10;;;16.00;99.90;;;;;;4970979;28;20039;-68
2023/06/18 05:42:03;;;;;;;17.05;8.27;;;16.10;99.90;;;;;;4967188;28;20065;-68
2023/06/18 05:44:28;;;;;;;13.23;8.40;;;16.20;99.90;;;;;;4971335;28;20038;-68
2023/06/18 05:46:54;;;;;;;11.88;8.23;;;16.30;99.90;;;;;;4970762;28;20030;-69
2023/06/18 05:49:20;;;;;;;12.07;8.10;;;16.50;99.90;;;;;;4968253;28;21486;-67
2023/06/18 05:51:45;;;;;;;12.07;8.43;;;16.60;99.90;;;;;;4970088;28;20096;-68
2023/06/18 05:54:11;;;;;;;17.40;8.52;;;16.80;99.90;;;;;;4969504;28;20041;-67
2023/06/18 05:56:37;;;;;;;11.88;8.18;;;16.90;99.90;;;;;;4969312;28;20277;-68
2023/06/18 05:59:02;;;;;;;11.15;8.38;;;16.90;99.90;;;;;;4971156;28;20928;-68
2023/06/18 06:01:28;;;;;;;13.45;8.88;;;17.00;99.90;;;;;;4970871;28;20031;-69
2023/06/18 06:03:53;;;;;;;14.32;7.97;;;17.10;99.90;;;;;;4971481;28;20121;-68
2023/06/18 06:06:19;;;;;;;10.32;7.20;;;17.20;99.90;;;;;;4969182;28;20491;-68
2023/06/18 06:08:45;;;;;;;10.77;7.30;;;17.40;99.90;;;;;;4971156;28;20068;-68
2023/06/18 06:11:10;;;;;;;9.82;7.25;;;17.50;99.90;;;;;;4971801;28;20121;-68
2023/06/18 06:13:36;;;;;;;10.73;6.82;;;17.80;99.90;;;;;;4971858;28;20042;-73
2023/06/18 06:16:01;;;;;;;10.60;7.47;;;17.90;99.90;;;;;;4969842;28;20041;-67
2023/06/18 06:18:27;;;;;;;19.52;8.25;;;18.00;99.90;;;;;;4970182;28;20042;-70
2023/06/18 06:20:53;;;;;;;11.30;7.28;;;18.10;99.90;;;;;;4967762;28;20578;-72
2023/06/18 06:23:19;;;;;;;8.77;7.10;;;18.20;99.90;;;;;;4969228;28;20121;-70
2023/06/18 06:25:45;;;;;;;13.75;7.75;;;18.30;99.90;;;;;;4963394;28;20730;-70
2023/06/18 06:28:11;;;;;;;8.85;7.25;;;18.50;99.90;;;;;;4961730;28;20030;-71
2023/06/18 06:30:36;;;;;;;13.75;6.95;;;18.70;99.90;;;;;;4967408;28;20038;-71
2023/06/18 06:33:03;;;;;;;8.68;7.03;;;18.80;99.90;;;;;;4968436;28;20034;-71
2023/06/18 06:35:29;;;;;;;9.48;7.30;;;19.00;99.90;;;;;;4966635;28;20066;-71
2023/06/18 06:37:55;;;;;;;10.02;7.00;;;19.20;99.90;;;;;;4966952;28;20144;-71
2023/06/18 06:40:21;;;;;;;8.40;6.63;;;19.30;99.90;;;;;;4967010;28;20215;-71
2023/06/18 06:42:46;;;;;;;9.77;7.43;;;19.50;99.90;;;;;;4966688;28;20126;-71
2023/06/18 06:45:12;;;;;;;9.40;6.70;;;19.70;99.90;;;;;;4965703;28;20042;-70
2023/06/18 06:47:38;;;;;;;10.00;6.82;;;19.90;99.90;;;;;;4965446;28;20035;-71
2023/06/18 06:50:04;;;;;;;9.25;7.40;;;20.10;99.90;;;;;;4967900;28;21137;-71
2023/06/18 06:52:29;;;;;;;9.32;6.80;;;20.20;99.90;;;;;;4966066;28;20449;-71
2023/06/18 06:54:55;;;;;;;10.35;6.57;;;20.40;99.90;;;;;;4966978;28;20042;-72
2023/06/18 06:57:20;;;;;;;9.68;6.55;;;20.50;99.90;;;;;;4964887;28;20905;-71
2023/06/18 06:59:46;;;;;;;8.98;6.65;;;20.60;99.90;;;;;;4969952;28;20046;-70
2023/06/18 07:02:12;;;;;;;7.35;6.13;;;20.70;99.90;;;;;;4969273;28;21566;-71
2023/06/18 07:04:37;;;;;;;8.70;6.50;;;20.90;99.90;;;;;;4970808;28;20030;-72
2023/06/18 07:07:03;;;;;;;9.82;6.85;;;21.10;99.90;;;;;;4969275;28;21044;-71
2023/06/18 07:09:29;;;;;;;9.55;6.68;;;21.20;99.90;;;;;;4966904;28;20038;-71
2023/06/18 07:11:54;;;;;;;8.63;6.38;;;21.30;99.90;;;;;;4968132;28;20455;-72
2023/06/18 07:14:20;;;;;;;9.70;7.45;;;21.30;99.90;;;;;;4971211;28;20030;-71
2023/06/18 07:16:45;;;;;;;9.88;6.53;;;21.40;99.90;;;;;;4971846;28;20042;-71
2023/06/18 07:19:11;;;;;;;9.02;6.88;;;21.50;99.90;;;;;;4970585;28;20043;-72
2023/06/18 07:21:36;;;;;;;10.45;7.15;;;21.70;99.90;;;;;;4970780;28;20069;-71
2023/06/18 07:24:02;;;;;;;12.45;7.00;;;21.80;99.90;;;;;;4971138;28;20161;-71
2023/06/18 07:26:28;;;;;;;10.48;7.07;;;21.80;99.90;;;;;;4973499;28;20042;-71
2023/06/18 07:28:53;;;;;;;10.18;6.10;;;21.90;99.90;;;;;;4974097;28;20060;-74
2023/06/18 07:31:19;;;;;;;12.63;6.53;;;22.00;99.90;;;;;;4973396;28;20081;-71
2023/06/18 07:33:44;;;;;;;9.77;6.63;;;22.10;99.90;;;;;;4973441;28;20074;-72
2023/06/18 07:36:10;;;;;;;9.95;6.43;;;22.20;99.90;;;;;;5036387;22;20069;-76
2023/06/18 07:38:36;;;;;;;9.40;6.50;;;22.30;99.90;;;;;;4999642;28;20037;-76
2023/06/18 07:41:01;;;;;;;15.27;6.78;;;22.40;99.90;;;;;;5000099;28;20053;-78
2023/06/18 07:43:27;;;;;;;10.23;6.72;;;22.50;99.90;;;;;;4997981;28;20018;-78
2023/06/18 07:45:53;;;;;;;10.77;6.53;;;22.60;99.90;;;;;;4996042;28;20034;-76
2023/06/18 07:48:18;;;;;;;10.60;6.60;;;22.70;99.90;;;;;;4998048;28;20087;-76
2023/06/18 07:50:44;;;;;;;10.40;6.32;;;22.80;99.90;;;;;;5000655;28;20021;-78
2023/06/18 07:53:10;;;;;;;11.30;6.32;;;22.90;99.90;;;;;;4999838;28;20030;-74
2023/06/18 07:55:35;;;;;;;8.77;5.80;;;23.00;99.90;;;;;;4998724;28;20041;-74
2023/06/18 07:58:01;;;;;;;10.32;6.28;;;23.20;99.90;;;;;;4999184;28;20096;-74
2023/06/18 08:00:26;;;;;;;9.55;6.32;;;23.20;99.90;;;;;;5000470;28;21376;-76
2023/06/18 08:02:52;;;;;;;9.38;5.72;;;23.30;99.90;;;;;;5002065;28;20015;-76
2023/06/18 08:05:18;;;;;;;12.25;6.28;;;23.40;99.90;;;;;;5000906;28;20057;-75
2023/06/18 08:07:43;;;;;;;9.60;6.00;;;23.50;99.30;;;;;;4999213;28;20189;-78
2023/06/18 08:10:09;;;;;;;9.80;5.95;;;23.60;99.90;;;;;;4998501;28;20104;-74
2023/06/18 08:12:35;;;;;;;7.53;5.72;;;23.70;99.10;;;;;;4998055;28;20033;-74
2023/06/18 08:15:00;;;;;;;9.07;5.55;;;23.80;98.20;;;;;;4998172;28;20564;-74
2023/06/18 08:17:26;;;;;;;8.07;6.03;;;23.90;97.10;;;;;;4998607;28;20056;-75
2023/06/18 08:19:51;;;;;;;8.07;6.13;;;24.00;97.20;;;;;;4998057;28;20045;-74
2023/06/18 08:22:17;;;;;;;7.70;5.20;;;24.10;95.40;;;;;;4999517;28;20037;-73
2023/06/18 08:24:44;;;;;;;7.60;6.10;;;24.10;94.00;;;;;;4998947;28;20033;-74
2023/06/18 08:27:09;;;;;;;8.32;5.60;;;24.10;96.80;;;;;;4999269;28;20026;-81
2023/06/18 08:29:35;;;;;;;6.50;5.53;;;24.20;93.00;;;;;;4997960;28;20041;-75
2023/06/18 08:32:04;;;;;;;9.35;5.15;;;24.30;93.10;;;;;;4998719;28;20188;-74
2023/06/18 08:34:34;;;;;;;7.10;5.35;;;24.30;93.10;;;;;;4998674;28;20055;-74
2023/06/18 08:36:59;;;;;;;7.13;5.90;;;24.50;93.70;;;;;;4998308;28;20033;-78
2023/06/18 08:39:26;;;;;;;8.32;5.80;;;24.50;92.30;;;;;;4998625;28;20049;-74
2023/06/18 08:42:01;;;;;;;11.13;5.93;;;24.70;92.00;;;;;;4999646;28;20037;-77
2023/06/18 08:44:28;;;;;;;7.13;5.53;;;24.70;92.60;;;;;;4999297;28;20548;-76
2023/06/18 08:47:00;;;;;;;11.18;6.25;;;24.70;92.50;;;;;;4999913;28;20029;-73
2023/06/18 08:49:34;;;;;;;10.25;5.80;;;24.70;91.60;;;;;;4998272;28;20117;-75
2023/06/18 08:52:05;;;;;;;14.27;5.95;;;24.80;92.30;;;;;;4998357;28;20129;-75
2023/06/18 08:54:35;;;;;;;7.15;5.72;;;24.90;92.00;;;;;;4998574;28;20037;-75
2023/06/18 08:57:27;;;;;;;9.65;6.18;;;25.00;91.20;;;;;;4998904;28;20667;-74
2023/06/18 08:59:54;;;;;;;7.25;5.85;;;25.10;90.60;;;;;;4992261;28;20128;-73
2023/06/18 09:02:21;;;;;;;6.57;5.47;;;25.20;90.10;;;;;;4998840;28;20242;-80
2023/06/18 09:04:47;;;;;;;8.30;5.80;;;25.20;88.50;;;;;;4998842;28;20486;-72
2023/06/18 09:07:12;;;;;;;7.20;5.70;;;25.20;88.20;;;;;;4996847;28;20030;-74
2023/06/18 09:09:38;;;;;;;7.35;5.85;;;25.40;86.50;;;;;;4997636;28;20045;-74
2023/06/18 09:12:04;;;;;;;8.68;5.47;;;25.40;87.70;;;;;;4998122;28;20710;-78
2023/06/18 09:14:30;;;;;;;6.70;5.22;;;25.50;85.40;;;;;;4998338;28;20033;-73
2023/06/18 09:16:57;;;;;;;6.03;5.43;;;25.50;87.20;;;;;;4997262;28;20520;-75
2023/06/18 09:19:23;;;;;;;8.20;5.15;;;25.50;86.60;;;;;;4997457;28;20069;-74
2023/06/18 09:21:49;;;;;;;8.90;5.60;;;25.60;85.20;;;;;;4997179;28;20045;-74
2023/06/18 09:24:17;;;;;;;7.72;5.32;;;25.60;83.00;;;;;;4997915;28;20053;-74
2023/06/18 09:26:43;;;;;;;7.10;5.20;;;25.70;84.60;;;;;;4997625;28;20525;-73
2023/06/18 09:29:10;;;;;;;6.78;5.38;;;25.80;83.90;;;;;;4997483;28;20037;-74
2023/06/18 09:31:41;;;;;;;9.77;5.68;;;26.00;86.10;;;;;;4997534;28;20037;-78
2023/06/18 09:34:19;;;;;;;8.23;5.93;;;26.10;83.00;;;;;;4997359;28;20034;-74
2023/06/18 09:36:47;;;;;;;7.75;5.15;;;26.40;81.40;;;;;;4996600;28;20435;-76
2023/06/18 09:39:21;;;;;;;9.15;5.25;;;26.50;80.20;;;;;;4996340;28;20051;-75
2023/06/18 09:41:49;;;;;;;10.23;5.90;;;26.70;81.00;;;;;;4997821;28;20037;-74
2023/06/18 09:44:23;;;;;;;7.82;5.32;;;27.00;82.60;;;;;;5055341;28;21490;-75
2023/06/18 09:46:54;;;;;;;11.45;5.18;;;27.30;81.50;;;;;;5042221;28;20113;-74
2023/06/18 09:49:20;;;;;;;6.13;5.38;;;27.40;78.90;;;;;;5042843;28;20068;-75
2023/06/18 09:51:48;;;;;;;5.88;5.15;;;27.70;78.80;;;;;;5042466;28;20166;-74
2023/06/18 09:54:14;;;;;;;8.55;4.72;;;28.00;76.50;;;;;;5044749;28;20029;-74
2023/06/18 09:56:58;;;;;;;6.85;5.38;;;28.20;75.90;;;;;;5046608;28;20477;-75
2023/06/18 09:59:25;;;;;;;7.70;5.60;;;28.20;75.20;;;;;;5046100;28;20033;-74
2023/06/18 10:01:50;;;;;;;7.85;5.38;;;28.40;74.30;;;;;;5046513;28;20036;-74
2023/06/18 10:04:19;;;;;;;7.32;4.88;;;28.50;74.70;;;;;;5046316;28;20047;-74
2023/06/18 10:06:58;;;;;;;6.25;5.63;;;28.70;73.50;;;;;;5045240;28;20025;-74
2023/06/18 10:09:29;;;;;;;5.75;5.03;;;28.90;73.00;;;;;;5045919;28;20040;-74
2023/06/18 10:11:57;;;;;;;8.43;4.80;;;29.10;73.50;;;;;;5046244;28;20168;-74
2023/06/18 10:14:24;;;;;;;5.47;4.60;;;29.30;72.20;;;;;;5046983;28;20029;-75
2023/06/18 10:16:51;;;;;;;8.88;5.40;;;29.50;71.00;;;;;;5046306;28;20035;-74
2023/06/18 10:19:24;;;;;;;8.13;5.75;;;29.40;69.80;;;;;;5045328;28;20569;-74
2023/06/18 10:22:01;;;;;;;8.30;4.80;;;29.50;71.80;;;;;;5047252;28;20578;-74
2023/06/18 10:24:55;;;;;;;6.32;5.40;;;29.60;68.20;;;;;;5045207;28;20481;-79
2023/06/18 10:27:21;;;;;;;5.83;5.07;;;29.70;69.40;;;;;;5044329;28;20048;-74
2023/06/18 10:29:46;;;;;;;9.48;4.97;;;29.90;68.40;;;;;;5045602;28;20527;-74
2023/06/18 10:32:13;;;;;;;6.82;4.65;;;29.90;68.10;;;;;;5045062;28;20036;-73
2023/06/18 10:34:39;;;;;;;7.40;5.18;;;29.90;67.40;;;;;;5045269;28;20032;-73
2023/06/18 10:37:07;;;;;;;6.60;4.82;;;29.90;68.00;;;;;;5044665;28;20025;-74
2023/06/18 10:39:36;;;;;;;7.07;5.13;;;29.90;65.00;;;;;;5045046;28;20033;-76
2023/06/18 10:42:15;;;;;;;7.80;5.15;;;29.90;67.00;;;;;;5045235;28;20040;-73
2023/06/18 10:44:58;;;;;;;8.40;5.10;;;30.10;68.00;;;;;;5045773;28;20040;-73
2023/06/18 10:47:26;;;;;;;6.25;4.88;;;30.00;64.40;;;;;;5044833;28;20524;-73
2023/06/18 10:50:04;;;;;;;6.47;5.07;;;29.90;66.60;;;;;;5044366;28;20612;-74
2023/06/18 10:52:50;;;;;;;7.43;5.50;;;30.10;64.70;;;;;;5045217;28;20048;-74
2023/06/18 10:55:18;;;;;;;8.48;5.15;;;30.20;66.80;;;;;;5033742;28;20431;-73
2023/06/18 10:57:48;;;;;;;11.30;5.05;;;30.20;66.20;;;;;;5031756;28;21025;-73
2023/06/18 11:00:19;;;;;;;9.73;5.70;;;30.30;65.40;;;;;;5030578;28;20029;-73
2023/06/18 11:02:46;;;;;;;13.15;5.50;;;30.30;67.20;;;;;;5031920;28;20797;-74
2023/06/18 11:05:16;;;;;;;7.85;4.47;;;30.30;66.90;;;;;;5031733;28;20410;-74
2023/06/18 11:07:42;;;;;;;6.82;4.70;;;30.60;64.60;;;;;;5031301;28;20048;-74
2023/06/18 11:10:08;;;;;;;6.13;4.65;;;30.80;61.80;;;;;;5031651;28;20018;-73
2023/06/18 11:12:38;;;;;;;7.13;5.18;;;30.60;61.50;;;;;;5032039;28;20032;-73
2023/06/18 11:15:05;;;;;;;8.80;4.85;;;30.50;64.00;;;;;;5031016;28;20112;-72
2023/06/18 11:17:32;;;;;;;7.30;5.68;;;30.40;65.20;;;;;;5031552;28;20224;-73
2023/06/18 11:19:59;;;;;;;8.43;5.03;;;30.60;63.30;;;;;;5031124;28;20433;-73
2023/06/18 11:22:26;;;;;;;8.10;5.20;;;30.70;64.30;;;;;;5031192;28;20432;-73
2023/06/18 11:24:52;;;;;;;5.75;4.82;;;30.60;63.60;;;;;;5030554;28;20040;-73
2023/06/18 11:27:19;;;;;;;8.05;4.97;;;30.70;62.80;;;;;;5031140;28;20083;-73
2023/06/18 11:29:45;;;;;;;6.95;4.75;;;31.00;64.30;;;;;;5031471;28;21494;-73
2023/06/18 11:32:14;;;;;;;7.05;4.63;;;31.20;62.40;;;;;;5026729;28;20028;-73
2023/06/18 11:34:43;;;;;;;6.32;5.32;;;31.30;63.30;;;;;;5023710;28;20124;-74
2023/06/18 11:37:10;;;;;;;7.35;5.22;;;31.40;61.90;;;;;;5026111;28;20051;-74
2023/06/18 11:39:38;;;;;;;9.15;5.22;;;31.30;62.10;;;;;;5029439;28;20029;-74
2023/06/18 11:42:19;;;;;;;7.60;5.25;;;31.50;61.10;;;;;;5027924;28;20151;-74
2023/06/18 11:44:52;;;;;;;5.97;4.93;;;31.60;60.50;;;;;;5029715;28;20461;-74
2023/06/18 11:47:18;;;;;;;7.75;5.80;;;31.40;62.50;;;;;;5031323;28;20036;-74
2023/06/18 11:49:49;;;;;;;8.93;5.30;;;31.40;62.30;;;;;;5027331;28;20028;-74
2023/06/18 11:52:17;;;;;;;10.68;5.38;;;31.50;60.40;;;;;;5028255;28;20033;-73
2023/06/18 11:54:43;;;;;;;10.43;4.70;;;31.50;62.00;;;;;;5028939;28;20036;-73
2023/06/18 11:57:17;;;;;;;11.55;4.93;;;31.70;61.60;;;;;;5026779;28;20037;-74
2023/06/18 11:59:44;;;;;;;7.80;4.72;;;32.00;61.50;;;;;;5029634;28;20033;-73
2023/06/18 12:02:24;;;;;;;7.28;4.97;;;31.90;60.30;;;;;;5026172;28;20033;-73
2023/06/18 12:04:51;;;;;;;8.15;5.03;;;32.40;58.50;;;;;;5027253;28;20048;-74
2023/06/18 12:07:22;;;;;;;5.88;5.10;;;32.40;58.00;;;;;;5021965;28;20052;-74
2023/06/18 12:09:51;;;;;;;8.07;5.00;;;32.20;59.20;;;;;;5025684;28;20127;-74
2023/06/18 12:12:27;;;;;;;6.00;4.95;;;32.20;57.90;;;;;;5026048;28;20033;-74
2023/06/18 12:15:16;;;;;;;9.60;4.88;;;32.10;58.70;;;;;;5027674;28;20113;-74
2023/06/18 12:17:57;;;;;;;5.78;4.80;;;32.10;58.30;;;;;;5026417;28;20052;-73
2023/06/18 12:20:25;;;;;;;6.80;4.93;;;32.10;57.00;;;;;;5025824;28;20091;-75
2023/06/18 12:22:51;;;;;;;10.10;5.82;;;32.20;57.10;;;;;;5026332;28;20442;-74
2023/06/18 12:25:21;;;;;;;7.28;5.18;;;32.40;57.80;;;;;;5024599;28;20799;-75
2023/06/18 12:27:49;;;;;;;8.80;5.18;;;32.50;57.50;;;;;;5026329;28;20345;-73
2023/06/18 12:30:15;;;;;;;8.65;5.40;;;32.40;57.70;;;;;;5024500;28;20477;-72
2023/06/18 12:32:40;;;;;;;5.78;5.10;;;32.40;59.30;;;;;;5028099;28;20029;-72
2023/06/18 12:35:19;;;;;;;7.47;5.50;;;32.50;57.10;;;;;;5025496;28;20033;-73
2023/06/18 12:37:46;;;;;;;8.82;5.18;;;32.40;57.30;;;;;;5025317;28;20975;-72
2023/06/18 12:40:18;;;;;;;7.00;5.57;;;32.60;56.50;;;;;;5024660;28;20404;-73
2023/06/18 12:42:45;;;;;;;8.77;5.25;;;32.60;56.50;;;;;;5024524;28;20044;-73